Time;durP1;ratioP1;P1;durP2;ratioP2;P2;SDS_P1;SDS_P2;PMS_P1;PMS_P2;Temp;Humidity;BMP_temperature;BMP_pressure;BME280_temperature;BME280_humidity;BME280_pressure;Samples;Min_cycle;Max_cycle;Signal;HPM_P1;HPM_P2
2022/10/22 00:03:52;;;;;;;30.08;20.00;;;;;;;6.17;88.48;98363.50;10372272;28;20488;-56
2022/10/22 00:08:51;;;;;;;30.17;20.52;;;;;;;6.19;89.00;98368.72;10372425;28;20491;-55
2022/10/22 00:13:50;;;;;;;31.80;18.40;;;;;;;6.22;88.83;98365.34;10372405;28;20508;-56
2022/10/22 00:18:50;;;;;;;28.08;19.27;;;;;;;6.24;88.43;98372.28;10372134;28;20076;-56
2022/10/22 00:23:49;;;;;;;27.92;19.17;;;;;;;6.28;87.93;98373.22;10371686;28;20472;-56
2022/10/22 00:28:47;;;;;;;29.40;19.10;;;;;;;6.27;87.52;98368.91;10372198;28;20543;-56
2022/10/22 00:33:47;;;;;;;33.15;19.45;;;;;;;6.24;87.74;98364.53;10371872;28;20397;-55
2022/10/22 00:38:45;;;;;;;29.65;20.17;;;;;;;6.23;88.13;98359.34;10376235;28;20061;-55
2022/10/22 00:44:03;;;;;;;30.30;21.67;;;;;;;6.19;87.23;98346.38;10379666;28;20040;-55
2022/10/22 00:49:03;;;;;;;29.35;20.30;;;;;;;6.16;87.83;98332.53;10379319;28;20088;-56
2022/10/22 00:54:07;;;;;;;30.20;20.13;;;;;;;6.23;87.78;98315.53;10379239;28;20056;-55
2022/10/22 00:59:06;;;;;;;27.17;20.00;;;;;;;6.26;87.76;98315.59;10378821;28;20459;-55
2022/10/22 01:04:05;;;;;;;28.77;19.25;;;;;;;6.25;87.20;98319.03;10378828;28;20515;-55
2022/10/22 01:09:13;;;;;;;29.38;19.80;;;;;;;6.26;87.35;98316.50;10378638;28;20025;-56
2022/10/22 01:14:17;;;;;;;29.95;18.80;;;;;;;6.23;87.50;98321.53;10378412;28;20499;-56
2022/10/22 01:19:43;;;;;;;26.02;18.23;;;;;;;6.21;87.28;98322.34;10378134;28;20065;-56
2022/10/22 01:24:48;;;;;;;28.52;19.15;;;;;;;6.22;87.42;98314.66;10377875;28;20060;-55
2022/10/22 01:29:52;;;;;;;25.90;17.98;;;;;;;6.23;87.19;98305.22;10378352;28;20475;-55
2022/10/22 01:34:57;;;;;;;27.67;18.30;;;;;;;6.26;86.64;98298.44;10377676;28;20068;-55
2022/10/22 01:40:01;;;;;;;26.13;18.30;;;;;;;6.26;86.23;98294.97;10377339;28;20503;-56
2022/10/22 01:45:00;;;;;;;31.10;18.77;;;;;;;6.18;86.83;98287.06;10377036;28;20064;-55
2022/10/22 01:50:08;;;;;;;27.13;18.08;;;;;;;6.12;87.12;98281.78;10376466;28;20055;-56
2022/10/22 01:55:28;;;;;;;28.35;19.13;;;;;;;6.05;87.58;98274.72;10376805;28;20515;-55
2022/10/22 02:00:27;;;;;;;26.05;18.63;;;;;;;5.90;88.38;98260.59;10376542;28;20063;-56
2022/10/22 02:05:51;;;;;;;27.40;18.70;;;;;;;6.03;87.97;98264.38;10376410;28;20064;-55
2022/10/22 02:10:52;;;;;;;26.63;17.77;;;;;;;6.04;87.40;98257.50;10376239;28;20068;-56
2022/10/22 02:15:52;;;;;;;27.85;18.23;;;;;;;6.07;87.79;98252.44;10375698;28;20136;-56
2022/10/22 02:20:52;;;;;;;21.33;14.88;;;;;;;6.06;87.79;98255.84;10375796;28;20071;-55
2022/10/22 02:25:58;;;;;;;24.27;15.57;;;;;;;6.09;87.61;98261.06;10374036;28;20507;-56
2022/10/22 02:31:10;;;;;;;23.65;15.63;;;;;;;6.08;87.96;98246.47;10375873;28;20504;-55
2022/10/22 02:36:10;;;;;;;24.45;16.38;;;;;;;6.10;87.95;98248.22;10375514;28;20492;-56
2022/10/22 02:41:09;;;;;;;26.33;16.20;;;;;;;6.03;88.08;98245.47;10374905;28;20060;-56
2022/10/22 02:46:10;;;;;;;26.55;15.85;;;;;;;5.98;88.08;98246.22;10374776;28;20053;-55
2022/10/22 02:51:09;;;;;;;28.20;16.05;;;;;;;6.02;87.97;98254.03;10374477;28;20522;-56
2022/10/22 02:56:08;;;;;;;24.42;15.73;;;;;;;5.95;88.26;98251.31;10374357;28;20527;-56
2022/10/22 03:01:07;;;;;;;22.13;15.43;;;;;;;5.94;88.12;98265.00;10373694;28;20064;-56
2022/10/22 03:06:06;;;;;;;25.65;17.63;;;;;;;5.98;87.82;98264.25;10374040;28;20028;-56
2022/10/22 03:11:05;;;;;;;30.30;19.17;;;;;;;5.85;88.30;98262.19;10373873;28;20079;-55
2022/10/22 03:16:05;;;;;;;31.40;22.15;;;;;;;5.85;88.19;98249.31;10374142;28;20076;-56
2022/10/22 03:21:22;;;;;;;31.13;19.73;;;;;;;5.85;88.39;98245.88;10373837;28;20391;-56
2022/10/22 03:26:22;;;;;;;26.63;17.85;;;;;;;5.88;88.14;98233.06;10373835;28;20491;-56
2022/10/22 03:31:21;;;;;;;26.67;16.20;;;;;;;5.90;88.55;98219.38;10371675;28;20146;-56
2022/10/22 03:36:20;;;;;;;31.23;19.20;;;;;;;5.90;88.12;98214.25;10373221;28;20096;-55
2022/10/22 03:41:19;;;;;;;32.17;19.58;;;;;;;5.83;88.65;98217.50;10373414;28;20518;-56
2022/10/22 03:46:19;;;;;;;30.08;19.98;;;;;;;5.81;88.76;98219.16;10372851;28;20065;-56
2022/10/22 03:51:18;;;;;;;;;;;;;;;5.86;88.60;98217.59;10372966;28;20080;-56
2022/10/22 03:56:16;;;;;;;30.25;21.13;;;;;;;5.97;88.67;98215.25;10372815;28;19912;-55
2022/10/22 04:01:15;;;;;;;31.50;19.35;;;;;;;6.06;88.20;98227.50;10372517;28;20112;-55
2022/10/22 04:06:15;;;;;;;24.13;15.75;;;;;;;6.22;88.29;98219.31;10373861;28;20107;-55
2022/10/22 04:11:15;;;;;;;24.38;16.20;;;;;;;6.41;88.37;98212.88;10404152;28;20112;-55
2022/10/22 04:16:17;;;;;;;23.30;16.38;;;;;;;6.59;87.42;98210.72;10411297;28;20496;-56
2022/10/22 04:21:18;;;;;;;22.52;16.25;;;;;;;6.78;87.05;98204.25;10405197;28;20060;-56
2022/10/22 04:26:18;;;;;;;25.88;18.52;;;;;;;6.94;86.37;98204.56;10409225;28;20562;-56
2022/10/22 04:31:20;;;;;;;27.83;18.60;;;;;;;6.95;85.17;98196.84;10408290;28;20111;-56
2022/10/22 04:36:19;;;;;;;34.78;24.85;;;;;;;6.89;84.96;98211.31;10408348;28;20115;-56
2022/10/22 04:41:25;;;;;;;30.35;22.38;;;;;;;6.99;84.35;98208.13;10408871;28;20063;-55
2022/10/22 04:46:28;;;;;;;41.22;28.88;;;;;;;7.05;84.61;98205.63;10407743;28;20105;-55
2022/10/22 04:51:27;;;;;;;41.13;26.77;;;;;;;7.19;83.74;98201.66;10407585;28;20070;-56
2022/10/22 04:56:30;;;;;;;36.80;25.70;;;;;;;7.33;83.19;98209.63;10408044;28;20028;-55
2022/10/22 05:01:40;;;;;;;43.25;29.05;;;;;;;7.52;82.99;98218.66;10408415;28;20116;-55
2022/10/22 05:06:39;;;;;;;39.95;28.33;;;;;;;7.60;82.39;98204.16;10365582;28;20558;-55
2022/10/22 05:11:45;;;;;;;31.65;22.83;;;;;;;7.76;81.93;98209.59;10366820;28;20112;-56
2022/10/22 05:16:46;;;;;;;38.97;24.98;;;;;;;7.88;81.82;98225.31;10366383;28;20139;-55
2022/10/22 05:21:45;;;;;;;31.92;24.15;;;;;;;8.02;80.93;98234.16;10374160;28;20059;-55
2022/10/22 05:26:44;;;;;;;31.35;20.60;;;;;;;8.16;80.17;98230.94;10366020;28;20057;-55
2022/10/22 05:31:43;;;;;;;41.97;28.33;;;;;;;8.24;79.62;98240.53;10365537;28;20543;-55
2022/10/22 05:36:43;;;;;;;37.25;26.08;;;;;;;8.38;79.80;98248.53;10405910;28;20103;-56
2022/10/22 05:41:42;;;;;;;38.47;28.05;;;;;;;8.55;79.55;98245.31;10404623;28;20468;-55
2022/10/22 05:46:42;;;;;;;40.42;27.67;;;;;;;8.68;79.23;98253.28;10403353;28;20730;-57
2022/10/22 05:51:41;;;;;;;37.63;26.58;;;;;;;8.82;78.94;98250.91;10403052;28;20124;-56
2022/10/22 05:56:40;;;;;;;44.33;26.35;;;;;;;8.97;78.61;98264.88;10407144;28;20056;-55
2022/10/22 06:01:39;;;;;;;41.92;25.85;;;;;;;9.14;78.19;98263.41;10406840;28;20029;-56
2022/10/22 06:06:41;;;;;;;34.95;24.35;;;;;;;9.32;77.61;98261.09;10365606;28;20104;-56
2022/10/22 06:11:40;;;;;;;35.80;25.65;;;;;;;9.53;77.24;98267.34;10365732;28;20108;-55
2022/10/22 06:16:39;;;;;;;31.30;21.02;;;;;;;9.74;76.84;98266.72;10365430;28;20025;-55
2022/10/22 06:21:38;;;;;;;23.77;18.25;;;;;;;9.93;75.77;98252.22;10404785;28;20115;-56
2022/10/22 06:26:38;;;;;;;25.90;18.55;;;;;;;10.17;75.13;98274.94;10406105;28;20052;-55
2022/10/22 06:31:36;;;;;;;;;;;;;;;10.30;73.66;98273.28;10405985;28;20068;-55
2022/10/22 06:36:36;;;;;;;28.10;17.30;;;;;;;10.45;73.06;98285.50;10405356;28;20321;-55
2022/10/22 06:41:35;;;;;;;24.23;16.23;;;;;;;10.57;72.31;98276.13;10407660;28;20082;-56
2022/10/22 06:46:34;;;;;;;22.02;15.30;;;;;;;10.66;71.90;98269.22;10408673;28;20410;-56
2022/10/22 06:51:33;;;;;;;21.27;15.10;;;;;;;10.81;70.97;98257.22;10407974;28;20098;-56
2022/10/22 06:56:32;;;;;;;19.02;14.05;;;;;;;10.96;70.32;98260.81;10408016;28;20032;-56
2022/10/22 07:01:33;;;;;;;23.67;14.93;;;;;;;11.10;68.89;98247.91;10408265;28;20021;-56
2022/10/22 07:06:32;;;;;;;21.65;14.88;;;;;;;11.33;69.12;98255.78;10375975;28;20063;-55
2022/10/22 07:11:42;;;;;;;21.50;14.38;;;;;;;11.54;68.64;98252.41;10377726;28;20039;-56
2022/10/22 07:16:42;;;;;;;23.27;12.38;;;;;;;11.68;66.68;98248.09;10377265;28;20353;-56
2022/10/22 07:21:40;;;;;;;23.25;12.98;;;;;;;11.88;66.00;98230.81;10377798;28;20264;-56
2022/10/22 07:26:39;;;;;;;21.10;11.70;;;;;;;12.15;65.79;98234.31;10379507;28;20028;-55
2022/10/22 07:31:38;;;;;;;16.80;10.85;;;;;;;12.41;64.89;98229.13;10419495;28;20440;-56
2022/10/22 07:36:37;;;;;;;23.98;12.07;;;;;;;12.71;63.72;98206.53;10419369;28;20032;-56
2022/10/22 07:41:36;;;;;;;23.65;14.30;;;;;;;12.99;61.33;98201.25;10416759;28;20024;-56
2022/10/22 07:46:35;;;;;;;18.65;11.13;;;;;;;13.24;60.92;98187.25;10415491;28;20074;-56
2022/10/22 07:51:34;;;;;;;17.92;12.23;;;;;;;13.54;59.40;98188.84;10413650;28;20045;-56
2022/10/22 07:56:33;;;;;;;24.48;13.73;;;;;;;13.83;56.93;98185.19;10415330;28;20099;-56
2022/10/22 08:01:32;;;;;;;26.65;15.48;;;;;;;14.17;55.92;98182.28;10415484;28;20446;-57
2022/10/22 08:06:31;;;;;;;16.95;11.48;;;;;;;14.50;54.64;98180.25;10412707;28;20027;-55
2022/10/22 08:11:32;;;;;;;19.70;12.00;;;;;;;14.76;54.25;98185.25;10410369;28;20498;-56
2022/10/22 08:16:31;;;;;;;18.40;10.88;;;;;;;15.01;53.58;98170.16;10410972;28;20060;-56
2022/10/22 08:21:30;;;;;;;;;;;;;;;15.37;52.25;98157.50;10412435;28;20035;-56
2022/10/22 08:26:28;;;;;;;30.60;18.65;;;;;;;15.71;51.72;98157.00;10412070;28;19912;-56
2022/10/22 08:31:27;;;;;;;18.80;11.40;;;;;;;16.04;50.04;98155.63;10412411;28;20779;-56
2022/10/22 08:36:27;;;;;;;17.90;9.88;;;;;;;16.37;49.42;98158.56;10412118;28;20020;-56
2022/10/22 08:41:26;;;;;;;10.40;7.38;;;;;;;16.71;48.01;98154.44;10411157;28;20797;-56
2022/10/22 08:46:51;;;;;;;12.90;7.20;;;;;;;17.10;46.17;98148.47;10413001;28;20079;-56
2022/10/22 08:51:51;;;;;;;11.63;6.60;;;;;;;17.38;44.97;98140.88;10412478;28;20087;-56
2022/10/22 08:57:16;;;;;;;11.77;6.97;;;;;;;17.68;44.13;98138.41;10413130;28;20056;-56
2022/10/22 09:02:55;;;;;;;10.73;7.07;;;;;;;18.01;43.92;98139.44;10419921;28;20068;-57
2022/10/22 09:07:54;;;;;;;11.57;7.05;;;;;;;18.29;42.60;98138.69;10419741;28;20068;-56
2022/10/22 09:12:54;;;;;;;13.77;8.85;;;;;;;18.55;41.72;98128.38;10419350;28;20075;-57
2022/10/22 09:17:52;;;;;;;12.73;7.30;;;;;;;18.90;39.86;98118.69;10419532;28;20060;-56
2022/10/22 09:23:07;;;;;;;11.70;6.68;;;;;;;19.21;39.08;98112.50;10419248;28;20028;-56
2022/10/22 09:28:08;;;;;;;11.77;7.55;;;;;;;19.45;39.32;98111.75;10419126;28;20071;-56
2022/10/22 09:33:41;;;;;;;11.75;7.22;;;;;;;19.66;38.72;98098.84;10418710;28;20060;-56
2022/10/22 09:38:46;;;;;;;10.00;6.40;;;;;;;19.73;38.23;98099.53;10374741;28;20538;-56
2022/10/22 09:43:48;;;;;;;8.90;5.95;;;;;;;19.83;38.19;98101.78;10422392;28;20063;-56
2022/10/22 09:48:52;;;;;;;13.05;6.28;;;;;;;19.95;37.78;98091.78;10421727;28;20079;-54
2022/10/22 09:54:01;;;;;;;9.90;5.90;;;;;;;20.17;37.51;98087.50;10421422;28;20031;-54
2022/10/22 09:59:01;;;;;;;8.57;6.00;;;;;;;20.35;36.59;98071.94;10421413;28;20028;-54
2022/10/22 10:04:09;;;;;;;13.25;6.43;;;;;;;20.51;36.60;98073.16;10420771;28;20075;-54
2022/10/22 10:09:15;;;;;;;8.48;6.00;;;;;;;20.76;36.07;98061.72;10421007;28;20070;-54
2022/10/22 10:14:17;;;;;;;10.48;6.30;;;;;;;21.00;35.40;98044.09;10420834;28;20029;-54
2022/10/22 10:19:29;;;;;;;8.35;5.45;;;;;;;21.22;34.50;98045.03;10420275;28;20043;-54
2022/10/22 10:24:46;;;;;;;10.18;5.53;;;;;;;21.46;33.57;98035.25;10420268;28;20070;-54
2022/10/22 10:30:00;;;;;;;12.93;5.97;;;;;;;21.72;32.26;98033.34;10420011;28;20040;-54
2022/10/22 10:35:06;;;;;;;12.73;5.60;;;;;;;22.09;30.88;98026.53;10419715;28;20032;-54
2022/10/22 10:40:20;;;;;;;10.10;5.97;;;;;;;22.30;30.80;98015.00;10418439;28;20079;-53
2022/10/22 10:45:30;;;;;;;10.32;5.68;;;;;;;22.49;31.12;98004.47;10416455;28;20063;-54
2022/10/22 10:51:07;;;;;;;10.85;4.97;;;;;;;22.69;31.18;98006.19;10415540;28;20483;-54
2022/10/22 10:56:40;;;;;;;10.35;6.70;;;;;;;22.83;30.90;97996.78;10416082;28;20068;-54
2022/10/22 11:01:52;;;;;;;9.88;6.20;;;;;;;22.95;30.85;97991.78;10415732;28;20063;-54
2022/10/22 11:06:55;;;;;;;10.55;6.45;;;;;;;23.11;30.42;97977.81;10414916;28;20087;-54
2022/10/22 11:12:02;;;;;;;12.57;6.68;;;;;;;23.30;30.86;97981.25;10415037;28;20071;-54
2022/10/22 11:17:14;;;;;;;13.02;6.40;;;;;;;23.46;30.34;97962.84;10414628;28;20064;-54
2022/10/22 11:22:28;;;;;;;9.60;7.07;;;;;;;23.67;30.14;97968.88;10414142;28;20064;-54
2022/10/22 11:27:39;;;;;;;8.75;6.13;;;;;;;23.79;30.58;97952.34;10414736;28;20484;-54
2022/10/22 11:32:42;;;;;;;12.38;6.82;;;;;;;23.87;30.34;97953.78;10414702;28;20452;-54
2022/10/22 11:37:44;;;;;;;12.35;6.88;;;;;;;23.90;29.83;97943.00;10413292;28;20118;-54
2022/10/22 11:42:55;;;;;;;13.15;6.88;;;;;;;24.10;30.26;97952.53;10414161;28;20064;-54
2022/10/22 11:48:09;;;;;;;14.40;6.45;;;;;;;24.08;29.79;97942.03;10414330;28;20487;-54
2022/10/22 11:53:11;;;;;;;11.50;6.53;;;;;;;24.12;30.35;97932.09;10414146;28;20063;-55
2022/10/22 11:58:38;;;;;;;14.73;7.35;;;;;;;24.08;30.61;97928.78;10412764;28;20053;-56
2022/10/22 12:03:42;;;;;;;15.05;6.70;;;;;;;24.01;30.64;97924.75;10405610;28;20347;-54
2022/10/22 12:08:47;;;;;;;11.40;7.03;;;;;;;23.94;30.72;97921.56;10411987;28;20506;-54
2022/10/22 12:14:28;;;;;;;11.73;7.03;;;;;;;23.95;30.81;97912.66;10413850;28;20079;-54
2022/10/22 12:19:38;;;;;;;12.20;7.53;;;;;;;23.90;30.75;97916.50;10413787;28;20486;-54
2022/10/22 12:24:40;;;;;;;12.32;7.10;;;;;;;23.85;30.86;97903.47;10413801;28;20060;-54
2022/10/22 12:29:39;;;;;;;12.40;7.03;;;;;;;23.86;31.03;97913.13;10413713;28;20543;-54
2022/10/22 12:34:45;;;;;;;12.80;7.85;;;;;;;23.83;31.13;97910.66;10418473;28;20511;-54
2022/10/22 12:39:45;;;;;;;15.52;7.72;;;;;;;23.76;30.82;97907.47;10415643;28;20506;-55
2022/10/22 12:44:44;;;;;;;13.18;7.63;;;;;;;23.60;31.38;97899.44;10423321;28;20484;-54
2022/10/22 12:49:47;;;;;;;13.48;7.20;;;;;;;23.50;30.88;97894.72;10423934;28;20433;-54
2022/10/22 12:54:51;;;;;;;13.07;7.45;;;;;;;23.49;30.46;97895.63;10424124;28;20039;-54
2022/10/22 12:59:50;;;;;;;16.60;7.25;;;;;;;23.54;31.01;97883.88;10423912;28;20032;-54
2022/10/22 13:05:19;;;;;;;12.43;7.38;;;;;;;23.56;31.03;97883.78;10423320;28;20080;-54
2022/10/22 13:10:24;;;;;;;13.32;7.22;;;;;;;23.53;31.58;97890.09;10423861;28;20506;-54
2022/10/22 13:15:26;;;;;;;14.85;6.82;;;;;;;23.57;30.88;97878.41;10423067;28;20064;-54
2022/10/22 13:20:25;;;;;;;21.70;9.63;;;;;;;23.64;30.98;97874.50;10423560;28;20100;-54
2022/10/22 13:25:28;;;;;;;12.52;7.60;;;;;;;23.79;31.18;97878.16;10423197;28;20115;-54
2022/10/22 13:30:30;;;;;;;14.50;7.97;;;;;;;23.92;30.78;97870.41;10422272;28;20060;-54
2022/10/22 13:35:33;;;;;;;14.73;7.50;;;;;;;24.03;30.80;97870.69;10420429;28;20063;-54
2022/10/22 13:40:32;;;;;;;10.55;6.60;;;;;;;24.05;31.02;97871.47;10420490;28;20063;-54
2022/10/22 13:45:31;;;;;;;17.50;7.18;;;;;;;24.02;30.83;97863.66;10418170;28;20029;-54
2022/10/22 13:50:30;;;;;;;12.05;6.78;;;;;;;24.04;30.60;97866.25;10418223;28;20045;-54
2022/10/22 13:55:29;;;;;;;12.30;7.18;;;;;;;24.08;30.82;97856.34;10418378;28;20068;-54
2022/10/22 14:00:28;;;;;;;11.82;6.60;;;;;;;24.04;30.87;97859.16;10416062;28;20064;-54
2022/10/22 14:05:29;;;;;;;15.15;7.65;;;;;;;23.96;30.39;97858.72;10417729;28;20032;-54
2022/10/22 14:10:28;;;;;;;12.05;8.23;;;;;;;23.95;31.00;97857.00;10416423;28;20071;-54
2022/10/22 14:15:28;;;;;;;14.25;7.03;;;;;;;23.82;30.52;97862.09;10417541;28;20067;-54
2022/10/22 14:20:30;;;;;;;16.38;7.40;;;;;;;23.74;30.74;97858.13;10417087;28;20471;-54
2022/10/22 14:25:30;;;;;;;16.30;7.63;;;;;;;23.59;30.61;97850.06;10416934;28;20068;-54
2022/10/22 14:30:31;;;;;;;18.10;7.35;;;;;;;23.40;30.63;97859.88;10417017;28;20064;-54
2022/10/22 14:35:30;;;;;;;16.35;7.53;;;;;;;23.33;30.67;97850.53;10414820;28;20064;-54
2022/10/22 14:40:29;;;;;;;14.05;7.75;;;;;;;23.30;30.48;97848.88;10416237;28;20117;-54
2022/10/22 14:45:28;;;;;;;13.48;7.65;;;;;;;23.33;31.08;97858.47;10415928;28;20068;-54
2022/10/22 14:50:27;;;;;;;14.98;8.00;;;;;;;23.33;32.16;97866.41;10416049;28;20095;-54
2022/10/22 14:55:27;;;;;;;13.98;7.45;;;;;;;23.12;31.42;97871.00;10414732;28;20070;-56
2022/10/22 15:00:27;;;;;;;17.17;10.07;;;;;;;22.99;32.70;97876.03;10415850;28;20060;-54
2022/10/22 15:05:26;;;;;;;15.55;7.20;;;;;;;22.63;32.70;97876.03;10415301;28;20075;-54
2022/10/22 15:10:25;;;;;;;18.83;8.88;;;;;;;22.52;34.10;97880.00;10415133;28;20097;-54
2022/10/22 15:15:24;;;;;;;21.48;10.10;;;;;;;22.26;33.85;97886.53;10414657;28;20064;-54
2022/10/22 15:20:24;;;;;;;18.27;11.27;;;;;;;22.07;33.32;97880.38;10408376;28;20036;-54
2022/10/22 15:25:23;;;;;;;23.40;14.02;;;;;;;21.93;34.69;97889.75;10410141;28;20075;-56
2022/10/22 15:30:22;;;;;;;25.17;13.23;;;;;;;21.65;34.26;97887.47;10372322;28;20036;-54
2022/10/22 15:35:21;;;;;;;29.73;15.18;;;;;;;21.58;33.89;97885.16;10371278;28;20515;-54
2022/10/22 15:40:20;;;;;;;27.92;12.18;;;;;;;21.43;35.06;97889.31;10371993;28;20054;-57
2022/10/22 15:45:20;;;;;;;24.38;12.50;;;;;;;21.22;35.21;97899.00;10371201;28;20040;-54
2022/10/22 15:50:19;;;;;;;20.60;9.30;;;;;;;21.04;34.20;97909.34;10371630;28;20521;-54
2022/10/22 15:55:19;;;;;;;21.48;9.77;;;;;;;20.89;34.22;97918.75;10373081;28;20384;-54
2022/10/22 16:00:18;;;;;;;15.88;9.05;;;;;;;20.65;34.90;97923.22;10381026;28;20486;-54
2022/10/22 16:05:17;;;;;;;14.77;8.23;;;;;;;20.44;34.36;97924.03;10391619;28;20072;-54
2022/10/22 16:10:16;;;;;;;17.50;8.73;;;;;;;20.20;34.84;97920.53;10398268;28;20068;-56
2022/10/22 16:15:15;;;;;;;14.88;8.55;;;;;;;19.97;34.89;97930.13;10419018;28;20070;-54
2022/10/22 16:20:14;;;;;;;17.05;8.18;;;;;;;19.81;35.30;97929.84;10420534;28;20108;-54
2022/10/22 16:25:13;;;;;;;19.83;8.90;;;;;;;19.70;34.96;97936.38;10418571;28;20483;-56
2022/10/22 16:30:12;;;;;;;14.65;9.73;;;;;;;19.77;35.13;97944.00;10418061;28;20539;-54
2022/10/22 16:35:11;;;;;;;19.48;11.35;;;;;;;19.73;35.68;97947.66;10419248;28;20074;-54
2022/10/22 16:40:11;;;;;;;15.13;10.05;;;;;;;19.52;36.15;97935.22;10414092;28;20051;-54
2022/10/22 16:45:10;;;;;;;17.15;12.35;;;;;;;19.41;36.57;97941.69;10394213;28;20073;-54
2022/10/22 16:50:09;;;;;;;17.85;11.95;;;;;;;19.28;37.00;97948.28;10360465;28;20115;-54
2022/10/22 16:55:08;;;;;;;18.30;11.65;;;;;;;19.18;37.69;97952.09;10411516;28;20037;-56
2022/10/22 17:00:08;;;;;;;20.35;11.27;;;;;;;18.99;38.20;97933.44;10418980;28;20502;-57
2022/10/22 17:05:07;;;;;;;21.60;13.25;;;;;;;18.83;38.76;97935.72;10418202;28;20809;-54
2022/10/22 17:10:07;;;;;;;18.92;12.05;;;;;;;18.64;39.16;97929.25;10417657;28;20491;-56
2022/10/22 17:15:07;;;;;;;17.83;11.57;;;;;;;18.45;39.65;97919.28;10418133;28;20072;-56
2022/10/22 17:20:06;;;;;;;17.77;12.02;;;;;;;18.17;41.28;97904.38;10416117;28;20071;-55
2022/10/22 17:25:18;;;;;;;31.17;13.50;;;;;;;17.75;41.51;97898.50;10417204;28;20068;-56
2022/10/22 17:30:19;;;;;;;29.20;17.15;;;;;;;17.65;41.91;97918.91;10417917;28;20064;-56
2022/10/22 17:35:18;;;;;;;32.53;21.40;;;;;;;17.56;42.10;97929.66;10417573;28;20055;-56
2022/10/22 17:40:17;;;;;;;43.90;28.45;;;;;;;17.35;43.28;97937.19;10418040;28;20059;-57
2022/10/22 17:45:16;;;;;;;50.95;32.17;;;;;;;17.10;43.94;97933.44;10420672;28;20032;-55
2022/10/22 17:50:15;;;;;;;;;;;;;;;16.95;43.86;97941.66;10420438;28;20063;-56
2022/10/22 17:55:14;;;;;;;54.27;34.70;;;;;;;16.85;44.72;97936.63;10420128;28;19908;-56
2022/10/22 18:00:14;;;;;;;;;;;;;;;16.67;45.13;97937.03;10420638;28;20306;-55
2022/10/22 18:05:13;;;;;;;36.63;22.40;;;;;;;16.50;45.10;97930.41;10419854;28;19967;-56
2022/10/22 18:10:12;;;;;;;;;;;;;;;16.39;45.64;97927.16;10419603;28;20032;-56
2022/10/22 18:15:11;;;;;;;32.17;21.93;;;;;;;16.25;46.39;97929.19;10420240;28;19919;-56
2022/10/22 18:20:10;;;;;;;;;;;;;;;16.07;46.87;97941.78;10419624;28;20135;-56
2022/10/22 18:25:10;;;;;;;44.08;26.42;;;;;;;15.90;47.73;97933.41;10412895;28;19960;-56
2022/10/22 18:30:09;;;;;;;43.05;28.77;;;;;;;15.68;48.00;97946.00;10417845;28;20067;-56
2022/10/22 18:35:10;;;;;;;63.00;35.78;;;;;;;15.51;48.99;97951.53;10418709;28;20064;-56
2022/10/22 18:40:10;;;;;;;52.45;33.55;;;;;;;15.33;49.74;97963.19;10416139;28;20064;-56
2022/10/22 18:45:10;;;;;;;54.72;34.13;;;;;;;15.18;50.57;97959.06;10414164;28;20072;-56
2022/10/22 18:50:09;;;;;;;52.33;32.55;;;;;;;15.03;51.19;97964.53;10414517;28;20505;-56
2022/10/22 18:55:08;;;;;;;;;;;;;;;14.90;51.73;97958.63;10408334;28;20431;-56
2022/10/22 19:00:08;;;;;;;52.05;32.60;;;;;;;14.82;51.64;97955.25;10413527;28;19942;-56
2022/10/22 19:05:07;;;;;;;60.70;39.97;;;;;;;14.75;52.18;97964.94;10413811;28;20068;-56
2022/10/22 19:10:07;;;;;;;50.45;34.20;;;;;;;14.64;52.19;97964.22;10412500;28;20063;-56
2022/10/22 19:15:06;;;;;;;55.03;36.22;;;;;;;14.52;52.89;97960.03;10413196;28;20479;-56
2022/10/22 19:20:06;;;;;;;53.78;37.10;;;;;;;14.44;53.35;97963.63;10413846;28;20059;-56
2022/10/22 19:25:05;;;;;;;49.70;33.00;;;;;;;14.44;53.04;97969.69;10412218;28;20071;-56
2022/10/22 19:30:05;;;;;;;47.03;31.98;;;;;;;14.27;54.75;97979.50;10412704;28;20064;-56
2022/10/22 19:35:04;;;;;;;46.60;29.38;;;;;;;14.31;54.77;97983.78;10413463;28;20344;-56
2022/10/22 19:40:04;;;;;;;;;;;;;;;14.29;54.76;97980.31;10412509;28;20513;-56
2022/10/22 19:45:05;;;;;;;37.67;26.75;;;;;;;14.22;55.31;97966.50;10412275;28;19974;-56
2022/10/22 19:50:04;;;;;;;58.33;37.47;;;;;;;14.18;55.38;97975.25;10412209;28;20084;-56
2022/10/22 19:55:03;;;;;;;59.92;39.45;;;;;;;14.10;55.54;97974.44;10411563;28;20064;-56
2022/10/22 20:00:03;;;;;;;59.15;35.67;;;;;;;13.95;56.66;97970.28;10411901;28;20071;-56
2022/10/22 20:05:03;;;;;;;49.53;32.28;;;;;;;13.79;57.62;97974.78;10412469;28;20490;-56
2022/10/22 20:10:03;;;;;;;44.20;30.05;;;;;;;13.66;57.85;97983.63;10411810;28;20071;-56
2022/10/22 20:15:02;;;;;;;43.53;29.00;;;;;;;13.49;58.29;97961.16;10411911;28;20071;-57
2022/10/22 20:20:01;;;;;;;44.80;25.23;;;;;;;13.63;58.47;97974.06;10411883;28;20078;-57
2022/10/22 20:25:00;;;;;;;35.85;22.40;;;;;;;13.61;58.23;97968.03;10411781;28;20079;-56
2022/10/22 20:29:58;;;;;;;34.88;22.67;;;;;;;13.62;58.61;97974.13;10411404;28;20035;-56
2022/10/22 20:34:57;;;;;;;33.35;21.25;;;;;;;13.53;58.61;97967.19;10412074;28;20501;-56
2022/10/22 20:39:56;;;;;;;29.83;17.75;;;;;;;13.48;58.78;97966.38;10411243;28;20055;-56
2022/10/22 20:44:55;;;;;;;31.90;21.00;;;;;;;13.49;59.08;97968.09;10411618;28;20083;-56
2022/10/22 20:49:54;;;;;;;32.00;20.30;;;;;;;13.43;59.37;97969.03;10410941;28;20052;-55
2022/10/22 20:54:53;;;;;;;34.60;23.10;;;;;;;13.32;60.21;97955.22;10415175;28;20032;-56
2022/10/22 20:59:55;;;;;;;32.55;21.95;;;;;;;13.25;60.39;97966.59;10418457;28;20038;-57
2022/10/22 21:04:54;;;;;;;35.22;21.42;;;;;;;13.07;61.14;97957.16;10418463;28;20060;-56
2022/10/22 21:09:53;;;;;;;28.30;19.20;;;;;;;13.08;61.21;97970.19;10418946;28;20033;-56
2022/10/22 21:14:52;;;;;;;28.90;15.65;;;;;;;12.98;61.68;97973.75;10418310;28;20017;-56
2022/10/22 21:19:51;;;;;;;26.35;15.82;;;;;;;13.01;61.45;97957.22;10417855;28;20035;-56
2022/10/22 21:24:49;;;;;;;27.27;17.00;;;;;;;12.98;61.74;97963.31;10418656;28;20390;-56
2022/10/22 21:29:48;;;;;;;27.50;17.10;;;;;;;13.01;61.93;97950.25;10417438;28;20033;-56
2022/10/22 21:34:47;;;;;;;35.83;17.23;;;;;;;13.00;61.95;97942.44;10417806;28;20040;-56
2022/10/22 21:39:46;;;;;;;31.40;17.13;;;;;;;13.04;61.75;97944.16;10417519;28;20520;-56
2022/10/22 21:44:45;;;;;;;30.38;17.65;;;;;;;13.10;61.92;97954.56;10417589;28;20037;-56
2022/10/22 21:49:44;;;;;;;28.77;15.48;;;;;;;13.18;61.77;97947.53;10416621;28;20446;-55
2022/10/22 21:54:43;;;;;;;24.73;15.25;;;;;;;13.22;61.66;97945.75;10417363;28;20028;-56
2022/10/22 21:59:42;;;;;;;25.17;14.35;;;;;;;13.24;61.36;97936.19;10416247;28;20028;-56
2022/10/22 22:04:41;;;;;;;26.27;14.55;;;;;;;13.26;61.38;97950.09;10415655;28;20143;-56
2022/10/22 22:09:40;;;;;;;25.35;15.02;;;;;;;13.22;61.54;97956.19;10415794;28;20068;-56
2022/10/22 22:14:39;;;;;;;34.40;20.08;;;;;;;13.15;62.09;97953.63;10412833;28;20082;-56
2022/10/22 22:19:38;;;;;;;31.38;17.73;;;;;;;13.14;61.77;97943.19;10413129;28;20380;-56
2022/10/22 22:24:38;;;;;;;34.90;17.70;;;;;;;13.14;61.71;97949.31;10412142;28;20071;-56
2022/10/22 22:29:37;;;;;;;26.00;15.95;;;;;;;13.08;61.90;97949.34;10415189;28;20067;-56
2022/10/22 22:34:36;;;;;;;24.50;13.55;;;;;;;13.06;61.74;97942.41;10415086;28;20395;-56
2022/10/22 22:39:35;;;;;;;25.20;15.05;;;;;;;13.07;61.96;97937.22;10415775;28;20028;-57
2022/10/22 22:44:34;;;;;;;26.75;16.70;;;;;;;12.89;62.82;97924.31;10417994;28;20489;-56
2022/10/22 22:49:35;;;;;;;25.00;13.82;;;;;;;12.80;63.03;97914.81;10417672;28;20048;-56
2022/10/22 22:54:34;;;;;;;24.38;13.13;;;;;;;12.73;63.45;97908.78;10417862;28;20149;-56
2022/10/22 22:59:33;;;;;;;25.15;14.65;;;;;;;12.66;63.41;97922.72;10417814;28;20067;-56
2022/10/22 23:04:32;;;;;;;22.88;13.85;;;;;;;12.70;63.68;97914.03;10417248;28;20116;-57
2022/10/22 23:09:31;;;;;;;21.08;12.45;;;;;;;12.71;63.22;97913.13;10417175;28;20067;-56